Time;durP1;ratioP1;P1;durP2;ratioP2;P2;SDS_P1;SDS_P2;PMS_P1;PMS_P2;Temp;Humidity;BMP_temperature;BMP_pressure;BME280_temperature;BME280_humidity;BME280_pressure;Samples;Min_cycle;Max_cycle;Signal;HPM_P1;HPM_P2
2022/06/22 00:00:59;;;;;;;1.33;1.20;;;21.50;51.80;;;;;;5092764;28;20039;-67
2022/06/22 00:03:25;;;;;;;1.55;1.08;;;21.50;51.90;;;;;;5091091;28;20020;-68
2022/06/22 00:05:52;;;;;;;2.55;1.20;;;21.50;51.90;;;;;;5092342;28;20024;-67
2022/06/22 00:08:26;;;;;;;1.85;1.00;;;21.40;52.10;;;;;;5092489;28;20537;-66
2022/06/22 00:11:14;;;;;;;1.25;1.10;;;21.40;52.10;;;;;;5089572;28;20035;-68
2022/06/22 00:13:47;;;;;;;2.22;1.20;;;21.40;52.50;;;;;;5089649;28;20103;-68
2022/06/22 00:16:19;;;;;;;2.78;1.30;;;21.40;52.50;;;;;;5091285;28;20111;-68
2022/06/22 00:18:48;;;;;;;3.33;1.10;;;21.40;52.70;;;;;;5093072;28;20020;-68
2022/06/22 00:21:32;;;;;;;1.40;1.30;;;21.30;52.50;;;;;;5092535;28;20024;-69
2022/06/22 00:24:02;;;;;;;4.20;1.52;;;21.30;52.70;;;;;;5073439;28;20479;-69
2022/06/22 00:26:32;;;;;;;1.42;1.33;;;21.30;53.20;;;;;;5092793;28;20103;-68
2022/06/22 00:29:09;;;;;;;2.85;1.00;;;21.30;53.30;;;;;;5091931;28;20409;-69
2022/06/22 00:31:41;;;;;;;2.75;1.20;;;21.30;53.10;;;;;;5089850;28;20116;-68
2022/06/22 00:34:09;;;;;;;1.15;0.93;;;21.30;52.80;;;;;;5091768;28;20028;-67
2022/06/22 00:36:44;;;;;;;1.40;0.85;;;21.30;52.40;;;;;;5091044;28;20080;-68
2022/06/22 00:39:28;;;;;;;1.17;0.90;;;21.30;52.40;;;;;;5092936;28;20024;-67
2022/06/22 00:42:15;;;;;;;1.20;0.82;;;21.20;52.10;;;;;;5092914;28;20027;-67
2022/06/22 00:45:01;;;;;;;1.45;0.90;;;21.20;52.10;;;;;;5092794;28;20058;-68
2022/06/22 00:47:34;;;;;;;0.77;0.77;;;21.20;52.00;;;;;;5092205;28;20067;-68
2022/06/22 00:50:09;;;;;;;0.80;0.73;;;21.10;51.50;;;;;;5092736;28;20111;-68
2022/06/22 00:52:39;;;;;;;1.05;0.90;;;21.10;51.00;;;;;;5091945;28;20468;-68
2022/06/22 00:55:21;;;;;;;1.87;0.90;;;21.10;51.30;;;;;;5092535;28;20028;-68
2022/06/22 00:57:53;;;;;;;1.10;1.00;;;21.00;50.90;;;;;;5092635;28;20492;-67
2022/06/22 01:00:23;;;;;;;0.93;0.85;;;21.00;51.10;;;;;;5092271;28;20024;-68
2022/06/22 01:02:54;;;;;;;1.50;0.90;;;20.90;51.20;;;;;;5092777;28;20024;-68
2022/06/22 01:05:42;;;;;;;0.70;0.70;;;20.90;51.40;;;;;;5092224;28;20036;-67
2022/06/22 01:08:08;;;;;;;1.10;0.98;;;20.80;51.40;;;;;;5091656;28;20544;-68
2022/06/22 01:11:00;;;;;;;1.30;1.08;;;20.80;51.40;;;;;;5092299;28;20119;-68
2022/06/22 01:13:40;;;;;;;2.22;1.02;;;20.80;51.40;;;;;;5091684;28;20020;-68
2022/06/22 01:16:17;;;;;;;0.70;0.70;;;20.80;51.20;;;;;;5092775;28;20131;-68
2022/06/22 01:18:58;;;;;;;1.70;1.10;;;20.80;51.30;;;;;;5092694;28;20103;-67
2022/06/22 01:21:33;;;;;;;0.90;0.80;;;20.80;51.70;;;;;;5091917;28;20032;-68
2022/06/22 01:24:12;;;;;;;1.10;1.00;;;20.80;51.50;;;;;;5092422;28;20098;-68
2022/06/22 01:27:03;;;;;;;1.35;1.08;;;20.80;50.90;;;;;;5092469;28;20432;-68
2022/06/22 01:29:29;;;;;;;1.02;0.90;;;20.80;50.60;;;;;;5091684;28;20055;-68
2022/06/22 01:32:03;;;;;;;1.25;0.80;;;20.80;50.80;;;;;;5091937;28;20373;-68
2022/06/22 01:34:35;;;;;;;1.40;0.90;;;20.80;51.10;;;;;;5091620;28;20040;-68
2022/06/22 01:37:05;;;;;;;0.88;0.88;;;20.70;51.10;;;;;;5095104;28;20031;-68
2022/06/22 01:39:31;;;;;;;1.92;1.02;;;20.70;51.30;;;;;;5095852;28;20024;-67
2022/06/22 01:42:04;;;;;;;1.40;0.80;;;20.70;51.70;;;;;;5096289;28;20039;-68
2022/06/22 01:44:39;;;;;;;2.10;1.58;;;20.70;52.30;;;;;;5092744;28;20095;-68
2022/06/22 01:47:25;;;;;;;5.15;1.13;;;20.70;52.50;;;;;;5088122;28;20040;-68
2022/06/22 01:50:10;;;;;;;1.08;0.90;;;20.70;51.90;;;;;;5096216;28;20028;-68
2022/06/22 01:53:04;;;;;;;0.73;0.73;;;20.70;51.20;;;;;;5095636;28;20024;-68
2022/06/22 01:55:34;;;;;;;1.00;0.80;;;20.70;50.90;;;;;;5095620;28;20031;-68
2022/06/22 01:58:26;;;;;;;1.53;0.90;;;20.70;50.70;;;;;;5095759;28;20024;-68
2022/06/22 02:00:59;;;;;;;1.58;1.10;;;20.70;50.50;;;;;;5057023;28;20414;-68
2022/06/22 02:03:32;;;;;;;1.73;1.00;;;20.70;50.60;;;;;;5095624;28;20065;-68
2022/06/22 02:09:08;;;;;;;1.45;1.10;;;20.80;50.60;;;;;;5095797;28;20034;-67
2022/06/22 02:11:42;;;;;;;1.00;1.00;;;20.80;50.90;;;;;;5095070;28;20023;-68
2022/06/22 02:14:17;;;;;;;3.13;1.00;;;20.80;50.80;;;;;;5081092;28;20034;-69
2022/06/22 02:16:52;;;;;;;0.98;0.90;;;20.70;50.80;;;;;;5075200;28;20029;-68
2022/06/22 02:19:18;;;;;;;1.38;0.80;;;20.70;50.80;;;;;;5074959;28;20048;-68
2022/06/22 02:21:49;;;;;;;1.67;1.00;;;20.70;50.70;;;;;;5075091;28;20078;-68
2022/06/22 02:24:20;;;;;;;1.50;0.90;;;20.70;51.00;;;;;;5075255;28;20028;-69
2022/06/22 02:26:54;;;;;;;1.05;0.95;;;20.70;51.20;;;;;;5075093;28;20025;-68
2022/06/22 02:29:25;;;;;;;1.00;0.90;;;20.70;51.30;;;;;;5074669;28;20107;-68
2022/06/22 02:31:54;;;;;;;1.10;1.00;;;20.70;51.40;;;;;;5074863;28;20503;-68
2022/06/22 02:34:20;;;;;;;2.35;1.25;;;20.80;51.40;;;;;;5074780;28;20588;-68
2022/06/22 02:36:50;;;;;;;1.80;1.08;;;20.80;51.30;;;;;;5095006;28;20483;-68
2022/06/22 02:39:18;;;;;;;1.17;0.95;;;20.80;51.20;;;;;;5077390;28;20434;-68
2022/06/22 02:44:33;;;;;;;2.28;1.08;;;20.70;51.40;;;;;;5094858;28;20043;-67
2022/06/22 02:47:22;;;;;;;1.13;1.02;;;20.70;51.60;;;;;;5094891;28;20396;-68
2022/06/22 02:50:07;;;;;;;1.23;1.05;;;20.70;51.70;;;;;;5095204;28;20055;-67
2022/06/22 02:52:46;;;;;;;1.38;1.15;;;20.70;51.80;;;;;;5094668;28;20020;-67
2022/06/22 02:55:17;;;;;;;1.45;1.08;;;20.60;51.80;;;;;;5095056;28;20066;-67
2022/06/22 02:57:46;;;;;;;1.02;0.93;;;20.70;51.70;;;;;;5094988;28;20349;-67
2022/06/22 03:00:14;;;;;;;1.10;1.00;;;20.70;51.80;;;;;;5094780;28;20028;-67
2022/06/22 03:02:41;;;;;;;1.05;0.98;;;20.70;51.80;;;;;;5094329;28;20334;-66
2022/06/22 03:05:08;;;;;;;1.73;1.00;;;20.70;51.90;;;;;;5094748;28;20100;-67
2022/06/22 03:07:42;;;;;;;0.95;0.90;;;20.70;51.80;;;;;;5093891;28;20469;-67
2022/06/22 03:10:17;;;;;;;1.83;1.20;;;20.80;51.90;;;;;;5094731;28;20376;-67
2022/06/22 03:12:43;;;;;;;2.63;0.98;;;20.80;52.10;;;;;;5076046;28;20391;-67
2022/06/22 03:15:18;;;;;;;2.25;1.30;;;20.70;52.30;;;;;;5094120;28;20038;-68
2022/06/22 03:17:43;;;;;;;2.25;1.13;;;20.70;52.40;;;;;;5093806;28;20082;-68
2022/06/22 03:20:14;;;;;;;2.53;1.40;;;20.70;52.60;;;;;;5094303;28;20020;-66
2022/06/22 03:22:45;;;;;;;;;;;20.70;53.00;;;;;;5093982;28;20024;-68
2022/06/22 03:25:29;;;;;;;2.92;1.40;;;20.70;53.00;;;;;;5093943;28;20404;-69
2022/06/22 03:28:05;;;;;;;2.67;1.30;;;20.70;53.00;;;;;;5094123;28;20159;-67
2022/06/22 03:30:43;;;;;;;1.83;0.95;;;20.80;52.70;;;;;;5093816;28;20472;-68
2022/06/22 03:33:17;;;;;;;2.50;1.20;;;20.80;52.50;;;;;;5093929;28;20434;-67
2022/06/22 03:35:55;;;;;;;1.40;1.00;;;20.80;52.40;;;;;;5093533;28;20088;-66
2022/06/22 03:38:42;;;;;;;2.60;1.40;;;20.80;52.80;;;;;;5093940;28;20033;-67
2022/06/22 03:41:23;;;;;;;2.33;1.27;;;20.80;52.90;;;;;;5076182;28;20392;-68
2022/06/22 03:43:55;;;;;;;4.20;1.35;;;20.80;53.10;;;;;;5094450;28;20024;-67
2022/06/22 03:46:58;;;;;;;1.45;1.15;;;20.70;53.30;;;;;;5094110;28;20059;-67
2022/06/22 03:49:31;;;;;;;4.15;1.30;;;20.70;53.60;;;;;;5093555;28;20035;-67
2022/06/22 03:52:00;;;;;;;2.35;1.52;;;20.70;53.40;;;;;;5075945;28;20427;-68
2022/06/22 03:54:38;;;;;;;2.35;1.48;;;20.70;53.50;;;;;;5093202;28;20028;-68
2022/06/22 03:57:07;;;;;;;1.42;1.08;;;20.80;53.50;;;;;;5093761;28;20032;-68
2022/06/22 03:59:39;;;;;;;1.55;0.73;;;20.90;53.00;;;;;;5092399;28;20066;-68
2022/06/22 04:02:04;;;;;;;1.20;1.00;;;20.90;52.50;;;;;;5093647;28;20134;-68
2022/06/22 04:04:31;;;;;;;1.88;0.95;;;21.00;52.40;;;;;;5082551;28;20127;-68
2022/06/22 04:06:57;;;;;;;1.15;0.70;;;21.10;52.60;;;;;;5073089;28;20028;-68
2022/06/22 04:09:26;;;;;;;1.60;1.05;;;21.10;52.00;;;;;;5073358;28;20028;-67
2022/06/22 04:12:14;;;;;;;1.65;0.70;;;21.10;52.00;;;;;;5073125;28;20025;-68
2022/06/22 04:15:10;;;;;;;2.17;0.90;;;21.20;52.00;;;;;;5072727;28;20067;-67
2022/06/22 04:17:39;;;;;;;2.22;1.40;;;21.20;52.10;;;;;;5072929;28;20032;-68
2022/06/22 04:20:18;;;;;;;1.27;0.95;;;21.20;52.50;;;;;;5073341;28;20102;-67
2022/06/22 04:22:49;;;;;;;1.38;1.08;;;21.30;53.10;;;;;;5072566;28;20071;-68
2022/06/22 04:25:17;;;;;;;1.83;1.05;;;21.30;52.60;;;;;;5073026;28;20028;-68
2022/06/22 04:27:48;;;;;;;1.05;1.00;;;21.30;51.80;;;;;;5072360;28;20432;-68
2022/06/22 04:30:18;;;;;;;1.25;1.00;;;21.30;51.60;;;;;;5072618;28;20078;-67
2022/06/22 04:32:59;;;;;;;1.15;0.82;;;21.30;51.50;;;;;;5072065;28;20067;-67
2022/06/22 04:35:46;;;;;;;1.83;1.10;;;21.30;51.30;;;;;;5072537;28;20032;-67
2022/06/22 04:38:21;;;;;;;1.13;0.88;;;21.30;50.70;;;;;;5073456;28;20032;-68
2022/06/22 04:41:01;;;;;;;1.23;0.80;;;21.30;50.80;;;;;;5090859;28;20039;-68
2022/06/22 04:43:28;;;;;;;0.90;0.70;;;21.30;50.80;;;;;;5092560;28;20078;-67
2022/06/22 04:45:55;;;;;;;1.02;0.63;;;21.40;50.20;;;;;;5092791;28;20489;-68
2022/06/22 04:48:34;;;;;;;0.90;0.65;;;21.50;50.10;;;;;;5092742;28;20028;-67
2022/06/22 04:51:02;;;;;;;1.05;0.73;;;21.60;49.80;;;;;;5092735;28;20031;-67
2022/06/22 04:53:27;;;;;;;1.10;0.85;;;21.80;49.60;;;;;;5092475;28;20069;-68
2022/06/22 04:55:55;;;;;;;0.98;0.90;;;21.80;49.40;;;;;;5092533;28;20028;-68
2022/06/22 04:58:52;;;;;;;1.90;1.00;;;22.00;50.30;;;;;;5092589;28;20087;-68
2022/06/22 05:01:42;;;;;;;1.30;0.90;;;22.10;50.50;;;;;;5092585;28;20024;-68
2022/06/22 05:04:15;;;;;;;0.70;0.70;;;22.30;50.30;;;;;;5092677;28;20388;-68
2022/06/22 05:07:00;;;;;;;1.10;0.70;;;22.40;49.60;;;;;;5092133;28;20031;-67
2022/06/22 05:09:47;;;;;;;2.20;0.75;;;22.50;47.90;;;;;;5091883;28;20541;-67
2022/06/22 05:12:18;;;;;;;0.82;0.70;;;22.50;47.40;;;;;;5092456;28;20043;-68
2022/06/22 05:14:44;;;;;;;1.52;0.70;;;22.50;48.30;;;;;;5091932;28;20107;-68
2022/06/22 05:17:18;;;;;;;1.10;0.77;;;22.60;48.80;;;;;;5092498;28;20047;-69
2022/06/22 05:19:59;;;;;;;0.80;0.80;;;22.70;49.00;;;;;;5092185;28;20356;-68
2022/06/22 05:22:24;;;;;;;;;;;23.00;49.50;;;;;;5092764;28;20085;-68
2022/06/22 05:24:55;;;;;;;1.52;1.05;;;23.20;49.00;;;;;;5091774;28;19912;-68
2022/06/22 05:27:25;;;;;;;;;;;23.30;48.80;;;;;;5093032;28;20107;-68
2022/06/22 05:29:58;;;;;;;3.33;1.30;;;23.50;48.90;;;;;;5091536;28;20319;-68
2022/06/22 05:32:33;;;;;;;1.95;1.35;;;23.60;47.50;;;;;;5092311;28;20413;-68
2022/06/22 05:35:01;;;;;;;2.70;1.10;;;23.70;48.40;;;;;;5092046;28;20107;-68
2022/06/22 05:37:34;;;;;;;2.35;1.20;;;24.00;48.10;;;;;;5091977;28;20420;-67
2022/06/22 05:40:01;;;;;;;0.73;0.73;;;24.30;48.30;;;;;;5092293;28;20094;-67
2022/06/22 05:42:30;;;;;;;1.30;1.00;;;24.50;46.50;;;;;;5091698;28;20024;-67
2022/06/22 05:44:55;;;;;;;2.53;0.90;;;24.80;46.10;;;;;;5091221;28;20028;-68
2022/06/22 05:47:28;;;;;;;0.77;0.60;;;25.10;45.30;;;;;;5091790;28;20016;-69
2022/06/22 05:50:11;;;;;;;0.77;0.77;;;25.50;45.00;;;;;;5091538;28;20020;-68
2022/06/22 05:52:58;;;;;;;1.70;0.93;;;26.20;43.50;;;;;;5091718;28;20024;-67
2022/06/22 05:55:40;;;;;;;0.80;0.80;;;27.80;40.50;;;;;;5091874;28;20043;-68
2022/06/22 05:58:40;;;;;;;1.23;0.65;;;29.40;37.90;;;;;;5091653;28;20542;-68
2022/06/22 06:01:19;;;;;;;1.15;0.70;;;30.70;35.20;;;;;;5051360;28;20078;-69
2022/06/22 06:04:18;;;;;;;1.60;0.70;;;31.60;33.80;;;;;;5071148;28;20024;-68
2022/06/22 06:06:44;;;;;;;0.63;0.63;;;32.30;33.30;;;;;;5063648;28;20059;-68
2022/06/22 06:09:20;;;;;;;1.08;0.90;;;32.70;32.40;;;;;;5071467;28;20024;-69
2022/06/22 06:12:13;;;;;;;0.77;0.70;;;32.80;31.90;;;;;;5070923;28;20152;-67
2022/06/22 06:14:43;;;;;;;0.60;0.60;;;32.30;32.20;;;;;;5051268;28;20044;-67
2022/06/22 06:17:14;;;;;;;1.90;0.80;;;31.30;32.70;;;;;;5071626;28;20025;-68
2022/06/22 06:19:44;;;;;;;0.80;0.55;;;30.60;33.70;;;;;;5070708;28;20052;-68
2022/06/22 06:22:11;;;;;;;1.13;0.70;;;30.20;34.20;;;;;;5072626;28;20046;-68
2022/06/22 06:27:41;;;;;;;0.80;0.68;;;29.50;34.40;;;;;;5074426;28;20094;-68
2022/06/22 06:30:35;;;;;;;0.80;0.70;;;29.20;35.20;;;;;;5074872;28;20116;-69
2022/06/22 06:33:32;;;;;;;1.88;0.50;;;29.10;35.60;;;;;;5074953;28;20318;-67
2022/06/22 06:36:20;;;;;;;0.82;0.60;;;29.00;35.40;;;;;;5073402;28;20123;-68
2022/06/22 06:39:03;;;;;;;0.65;0.65;;;28.70;35.70;;;;;;5081130;28;20403;-68
2022/06/22 06:41:43;;;;;;;1.40;0.80;;;28.50;36.20;;;;;;5095196;28;20142;-69
2022/06/22 06:44:27;;;;;;;0.73;0.73;;;28.30;36.30;;;;;;5094859;28;20031;-68
2022/06/22 06:46:58;;;;;;;1.15;0.68;;;28.00;37.00;;;;;;5094413;28;20050;-69
2022/06/22 06:49:37;;;;;;;1.17;0.80;;;28.40;37.20;;;;;;5095048;28;20032;-68
2022/06/22 06:52:20;;;;;;;5.25;0.80;;;28.30;36.90;;;;;;5094537;28;20405;-69
2022/06/22 06:55:01;;;;;;;1.05;0.70;;;28.30;37.20;;;;;;5093782;28;20028;-68
2022/06/22 06:57:29;;;;;;;0.70;0.60;;;29.40;36.70;;;;;;5094575;28;20342;-68
2022/06/22 06:59:59;;;;;;;1.38;0.90;;;30.20;35.80;;;;;;5093880;28;20016;-69
2022/06/22 07:02:37;;;;;;;0.73;0.50;;;30.60;35.20;;;;;;5094351;28;20020;-68
2022/06/22 07:05:07;;;;;;;0.93;0.70;;;30.90;34.40;;;;;;5095230;28;20035;-69
2022/06/22 07:07:42;;;;;;;0.77;0.70;;;31.10;34.00;;;;;;5094750;28;20035;-69
2022/06/22 07:10:17;;;;;;;2.35;0.75;;;31.20;33.80;;;;;;5094750;28;20103;-68
2022/06/22 07:12:57;;;;;;;1.73;0.55;;;31.30;33.10;;;;;;5094317;28;20115;-68
2022/06/22 07:15:35;;;;;;;2.05;0.60;;;31.40;33.30;;;;;;5094611;28;20032;-69
2022/06/22 07:18:14;;;;;;;0.70;0.70;;;31.50;33.60;;;;;;5093879;28;20505;-68
2022/06/22 07:20:45;;;;;;;2.00;0.80;;;32.00;34.30;;;;;;5093902;28;20108;-67
2022/06/22 07:23:35;;;;;;;1.15;0.70;;;32.40;33.00;;;;;;5094446;28;20028;-68
2022/06/22 07:26:22;;;;;;;1.63;0.80;;;33.00;33.20;;;;;;5094074;28;20086;-68
2022/06/22 07:29:49;;;;;;;0.63;0.60;;;33.50;32.20;;;;;;5093975;28;20056;-68
2022/06/22 07:32:32;;;;;;;1.70;0.90;;;34.10;31.70;;;;;;4992428;28;20079;-69
2022/06/22 07:35:10;;;;;;;0.65;0.65;;;33.80;30.80;;;;;;5083562;28;20040;-68
2022/06/22 07:37:41;;;;;;;0.40;0.40;;;33.40;30.50;;;;;;5093863;28;20035;-69
2022/06/22 07:40:21;;;;;;;0.57;0.57;;;32.60;30.80;;;;;;5075862;28;20376;-68
2022/06/22 07:42:50;;;;;;;0.60;0.52;;;31.80;31.80;;;;;;5093441;28;20060;-68
2022/06/22 07:45:19;;;;;;;2.38;0.80;;;31.20;32.40;;;;;;5093291;28;20054;-68
2022/06/22 07:47:55;;;;;;;1.17;0.90;;;31.00;33.70;;;;;;5093287;28;20036;-67
2022/06/22 07:50:35;;;;;;;1.40;0.88;;;30.70;33.40;;;;;;5093944;28;20081;-68
2022/06/22 07:53:12;;;;;;;1.15;0.75;;;30.80;33.50;;;;;;5083997;28;20028;-68
2022/06/22 07:55:45;;;;;;;1.23;0.85;;;30.90;32.90;;;;;;5073006;28;20058;-68
2022/06/22 07:58:34;;;;;;;1.02;0.70;;;30.60;33.20;;;;;;5073728;28;20040;-68
2022/06/22 08:01:08;;;;;;;1.38;0.75;;;30.30;33.50;;;;;;5072954;28;20056;-69
2022/06/22 08:03:37;;;;;;;2.00;0.80;;;30.20;33.10;;;;;;5073292;28;20111;-68
2022/06/22 08:06:07;;;;;;;0.90;0.63;;;30.20;33.60;;;;;;5072817;28;20037;-68
2022/06/22 08:08:47;;;;;;;0.77;0.63;;;30.20;33.30;;;;;;5073171;28;20032;-68
2022/06/22 08:11:25;;;;;;;1.57;0.80;;;30.20;33.50;;;;;;5073283;28;20036;-68
2022/06/22 08:14:19;;;;;;;0.85;0.60;;;30.20;34.10;;;;;;5072651;28;20025;-68
2022/06/22 08:16:50;;;;;;;1.27;0.80;;;30.20;34.40;;;;;;5072535;28;20479;-68
2022/06/22 08:19:16;;;;;;;0.90;0.63;;;30.20;33.70;;;;;;5073144;28;20026;-68
2022/06/22 08:21:45;;;;;;;1.02;0.70;;;30.00;33.80;;;;;;5072856;28;20111;-68
2022/06/22 08:24:13;;;;;;;0.70;0.70;;;30.00;34.20;;;;;;5073059;28;20036;-68
2022/06/22 08:26:40;;;;;;;0.80;0.80;;;29.80;33.70;;;;;;5072898;28;20182;-69
2022/06/22 08:29:06;;;;;;;1.10;0.85;;;29.70;34.80;;;;;;5072550;28;20075;-68
2022/06/22 08:31:41;;;;;;;1.42;0.85;;;29.60;35.00;;;;;;5075900;28;20095;-68
2022/06/22 08:34:11;;;;;;;0.70;0.70;;;29.60;35.10;;;;;;5072674;28;20032;-68
2022/06/22 08:36:42;;;;;;;1.33;0.65;;;29.60;34.90;;;;;;5072712;28;20067;-69
2022/06/22 08:39:17;;;;;;;1.23;1.10;;;29.50;35.10;;;;;;5072247;28;20028;-68
2022/06/22 08:42:10;;;;;;;0.70;0.70;;;29.40;35.70;;;;;;5072500;28;20032;-68
2022/06/22 08:45:00;;;;;;;2.95;0.70;;;29.40;36.20;;;;;;5071502;28;20033;-68
2022/06/22 08:47:38;;;;;;;1.35;0.68;;;29.20;35.20;;;;;;5072900;28;20533;-68
2022/06/22 08:50:22;;;;;;;1.88;0.90;;;28.90;35.50;;;;;;5071987;28;20039;-68
2022/06/22 08:52:53;;;;;;;1.27;0.90;;;28.70;36.50;;;;;;5071793;28;20407;-68
2022/06/22 08:55:37;;;;;;;1.38;0.63;;;28.70;37.10;;;;;;5071945;28;20033;-68
2022/06/22 08:58:32;;;;;;;1.42;0.60;;;28.60;37.20;;;;;;5071754;28;20039;-68
2022/06/22 09:01:45;;;;;;;1.30;0.70;;;28.50;36.80;;;;;;5072186;28;20024;-69
2022/06/22 09:04:36;;;;;;;1.08;0.80;;;28.30;36.60;;;;;;5065853;28;20485;-70
2022/06/22 09:07:09;;;;;;;0.77;0.70;;;28.20;37.60;;;;;;5071788;28;20024;-69
2022/06/22 09:10:16;;;;;;;1.17;0.70;;;28.10;37.90;;;;;;5072144;28;20450;-69
2022/06/22 09:13:02;;;;;;;0.77;0.77;;;28.10;37.80;;;;;;5029975;28;20033;-69
2022/06/22 09:15:33;;;;;;;0.55;0.52;;;28.00;38.10;;;;;;5069117;28;20106;-68
2022/06/22 09:18:10;;;;;;;1.23;1.13;;;27.90;38.00;;;;;;5071646;28;20020;-67
2022/06/22 09:20:44;;;;;;;0.85;0.85;;;27.90;38.30;;;;;;5072433;28;20097;-68
2022/06/22 09:23:18;;;;;;;1.00;0.80;;;27.90;38.40;;;;;;5071600;28;20025;-68
2022/06/22 09:26:03;;;;;;;0.70;0.70;;;27.90;38.70;;;;;;5071822;28;20452;-69
2022/06/22 09:28:58;;;;;;;0.80;0.68;;;27.90;39.00;;;;;;5071704;28;20028;-69
2022/06/22 09:31:50;;;;;;;0.70;0.70;;;27.90;38.10;;;;;;5070308;28;20059;-68
2022/06/22 09:34:28;;;;;;;0.60;0.60;;;28.00;38.50;;;;;;5071899;28;20480;-68
2022/06/22 09:37:12;;;;;;;1.52;0.63;;;28.00;38.20;;;;;;5071504;28;20025;-68
2022/06/22 09:40:06;;;;;;;1.02;0.70;;;28.00;37.70;;;;;;5071313;28;20494;-69
2022/06/22 09:42:35;;;;;;;1.02;0.73;;;28.00;37.70;;;;;;5071472;28;20130;-68
2022/06/22 09:45:19;;;;;;;0.93;0.77;;;28.10;37.70;;;;;;5070994;28;20032;-68
2022/06/22 09:47:53;;;;;;;1.20;0.82;;;28.00;37.70;;;;;;5071508;28;20387;-68
2022/06/22 09:50:36;;;;;;;1.10;1.00;;;27.90;37.80;;;;;;5071614;28;20457;-69
2022/06/22 09:53:30;;;;;;;1.88;0.93;;;27.90;37.70;;;;;;5071323;28;20086;-68
2022/06/22 09:56:22;;;;;;;2.15;0.70;;;27.90;37.50;;;;;;5071105;28;20518;-68
2022/06/22 09:59:19;;;;;;;1.02;0.80;;;27.70;37.80;;;;;;5075843;28;20024;-68
2022/06/22 10:01:44;;;;;;;1.92;1.17;;;27.60;38.20;;;;;;5057149;28;20029;-68
2022/06/22 10:04:28;;;;;;;1.60;1.10;;;27.60;37.30;;;;;;5075001;28;20120;-68
2022/06/22 10:07:11;;;;;;;0.70;0.70;;;27.50;37.60;;;;;;5074762;28;20024;-68
2022/06/22 10:10:25;;;;;;;1.05;0.70;;;27.50;37.70;;;;;;5075381;28;20028;-68
2022/06/22 10:13:06;;;;;;;1.27;0.93;;;27.50;38.00;;;;;;5053128;28;20108;-67
2022/06/22 10:15:37;;;;;;;;;;;27.40;38.10;;;;;;5075434;28;20055;-68
2022/06/22 10:18:38;;;;;;;1.65;0.70;;;27.50;38.10;;;;;;5074713;28;19909;-68
2022/06/22 10:21:23;;;;;;;;;;;27.50;38.30;;;;;;5068225;28;20040;-68
2022/06/22 10:23:54;;;;;;;1.05;0.90;;;27.50;38.00;;;;;;5075104;28;19957;-69
2022/06/22 10:26:46;;;;;;;0.85;0.82;;;27.50;38.50;;;;;;5075236;28;20029;-68
2022/06/22 10:29:45;;;;;;;1.35;1.00;;;27.60;37.80;;;;;;5078752;28;20093;-68
2022/06/22 10:32:46;;;;;;;0.90;0.80;;;27.50;37.90;;;;;;5094810;28;20368;-68
2022/06/22 10:35:23;;;;;;;0.95;0.90;;;27.50;38.50;;;;;;5008709;28;20469;-69
2022/06/22 10:38:04;;;;;;;2.80;1.00;;;27.60;38.40;;;;;;5094743;28;20457;-69
2022/06/22 10:47:05;;;;;;;1.40;0.85;;;27.60;38.50;;;;;;5094689;28;20463;-68
2022/06/22 10:49:53;;;;;;;1.05;0.90;;;27.60;38.60;;;;;;5094674;28;20062;-68
2022/06/22 10:52:42;;;;;;;2.35;0.95;;;27.60;38.70;;;;;;5094800;28;20024;-68
2022/06/22 10:55:24;;;;;;;0.68;0.68;;;27.60;38.60;;;;;;5093982;28;20427;-67
2022/06/22 10:57:56;;;;;;;0.93;0.85;;;27.60;38.60;;;;;;5094633;28;20360;-68
2022/06/22 11:00:36;;;;;;;1.08;0.90;;;27.60;38.90;;;;;;5094813;28;20043;-68
2022/06/22 11:03:52;;;;;;;1.80;0.93;;;27.60;39.10;;;;;;5094112;28;20035;-67
2022/06/22 11:06:42;;;;;;;0.70;0.70;;;27.60;39.40;;;;;;5051166;28;20393;-67
2022/06/22 11:09:33;;;;;;;1.38;0.98;;;27.60;39.70;;;;;;5093925;28;20103;-67
2022/06/22 11:12:24;;;;;;;0.90;0.85;;;27.70;39.90;;;;;;5094033;28;20047;-67
2022/06/22 11:15:05;;;;;;;0.70;0.70;;;27.70;40.00;;;;;;5094560;28;20077;-68
2022/06/22 11:17:38;;;;;;;1.02;0.88;;;27.70;39.60;;;;;;5094509;28;20024;-69
2022/06/22 11:20:22;;;;;;;1.13;0.82;;;27.70;39.20;;;;;;5093648;28;20127;-68
2022/06/22 11:23:03;;;;;;;1.38;0.88;;;27.70;39.40;;;;;;5094229;28;20044;-68
2022/06/22 11:31:30;;;;;;;1.08;0.70;;;27.80;39.70;;;;;;5093853;28;20529;-68
2022/06/22 11:34:17;;;;;;;1.00;0.90;;;27.80;39.50;;;;;;5093625;28;20020;-68
2022/06/22 11:37:09;;;;;;;1.58;1.00;;;27.90;39.80;;;;;;5094274;28;20071;-68
2022/06/22 11:39:59;;;;;;;2.20;1.02;;;27.90;39.40;;;;;;5094008;28;20393;-69
2022/06/22 11:42:35;;;;;;;2.65;1.30;;;28.00;39.50;;;;;;5093736;28;20075;-68
2022/06/22 11:48:12;;;;;;;0.95;0.88;;;28.00;39.40;;;;;;5093252;28;20161;-68
2022/06/22 11:50:49;;;;;;;0.98;0.85;;;28.00;39.30;;;;;;5086121;28;20103;-69
2022/06/22 11:53:36;;;;;;;2.42;0.80;;;28.00;39.70;;;;;;5073208;28;20021;-68
2022/06/22 11:56:12;;;;;;;2.70;1.25;;;28.00;39.90;;;;;;5073063;28;20035;-67
2022/06/22 11:58:54;;;;;;;1.33;0.98;;;28.00;40.20;;;;;;5073087;28;20381;-68
2022/06/22 12:02:04;;;;;;;1.67;1.00;;;28.00;40.00;;;;;;5072893;28;20036;-67
2022/06/22 12:04:40;;;;;;;0.80;0.80;;;28.00;40.60;;;;;;5073224;28;20031;-68
2022/06/22 12:07:24;;;;;;;1.00;1.00;;;28.00;40.70;;;;;;5073061;28;20032;-68
2022/06/22 12:10:32;;;;;;;1.35;1.23;;;27.90;40.20;;;;;;5073070;28;20036;-68
2022/06/22 12:13:30;;;;;;;1.40;1.25;;;27.90;40.10;;;;;;5073066;28;20028;-68
2022/06/22 12:16:24;;;;;;;3.20;1.00;;;27.80;40.30;;;;;;5072947;28;20111;-68
2022/06/22 12:19:07;;;;;;;1.35;1.13;;;27.80;41.60;;;;;;5072960;28;20025;-68
2022/06/22 12:21:53;;;;;;;1.15;1.02;;;27.80;40.20;;;;;;5072401;28;20043;-68
2022/06/22 12:24:40;;;;;;;1.17;0.82;;;27.80;39.90;;;;;;5072132;28;20602;-68
2022/06/22 12:27:28;;;;;;;1.58;1.17;;;27.70;40.40;;;;;;5072334;28;20035;-68
2022/06/22 12:30:18;;;;;;;1.58;0.90;;;27.70;40.30;;;;;;5079933;28;20044;-68
2022/06/22 12:32:53;;;;;;;1.10;1.00;;;27.60;40.20;;;;;;5092542;28;20415;-68
2022/06/22 12:35:45;;;;;;;2.83;1.08;;;27.60;40.40;;;;;;5092389;28;20085;-68
2022/06/22 12:38:20;;;;;;;1.55;1.23;;;27.60;40.40;;;;;;5092664;28;20032;-68
2022/06/22 12:40:52;;;;;;;5.32;1.13;;;27.60;40.80;;;;;;5092713;28;20035;-69
2022/06/22 12:43:53;;;;;;;1.15;0.90;;;27.60;41.00;;;;;;5092494;28;20031;-68
2022/06/22 12:46:22;;;;;;;;;;;27.60;40.80;;;;;;5092585;28;20071;-67
2022/06/22 12:48:51;;;;;;;1.08;0.80;;;27.60;41.10;;;;;;5092414;28;19911;-70
2022/06/22 12:51:34;;;;;;;2.15;1.10;;;27.60;40.70;;;;;;5092206;28;20031;-68
2022/06/22 12:54:09;;;;;;;0.98;0.90;;;27.60;40.70;;;;;;5092378;28;20028;-68
2022/06/22 12:56:38;;;;;;;1.30;0.80;;;27.50;40.60;;;;;;5092285;28;20020;-68
2022/06/22 12:59:18;;;;;;;1.25;0.85;;;27.50;41.10;;;;;;5092050;28;20024;-68
2022/06/22 13:01:44;;;;;;;2.58;1.13;;;27.50;41.40;;;;;;5092441;28;20107;-69
2022/06/22 13:04:25;;;;;;;1.85;0.90;;;27.50;41.70;;;;;;5091819;28;20441;-67
2022/06/22 13:06:57;;;;;;;1.02;0.77;;;27.60;41.30;;;;;;5092364;28;20103;-68
2022/06/22 13:09:24;;;;;;;2.45;1.15;;;27.60;41.20;;;;;;5091857;28;20104;-67
2022/06/22 13:11:51;;;;;;;0.98;0.88;;;27.60;41.00;;;;;;5092235;28;20024;-68
2022/06/22 13:14:25;;;;;;;0.85;0.80;;;27.60;41.20;;;;;;5091823;28;20376;-67
2022/06/22 13:17:06;;;;;;;2.08;1.23;;;27.60;41.10;;;;;;5092205;28;20035;-68
2022/06/22 13:19:52;;;;;;;3.97;1.13;;;27.60;41.20;;;;;;5092122;28;20028;-68
2022/06/22 13:22:40;;;;;;;1.35;0.90;;;27.60;41.40;;;;;;5091625;28;20111;-68
2022/06/22 13:25:33;;;;;;;1.55;0.75;;;27.60;41.50;;;;;;5091486;28;20028;-66
2022/06/22 13:28:09;;;;;;;0.85;0.80;;;27.60;41.70;;;;;;5092015;28;20024;-68
2022/06/22 13:30:42;;;;;;;3.13;1.10;;;27.60;42.20;;;;;;5091577;28;20100;-69
2022/06/22 13:33:11;;;;;;;0.70;0.70;;;27.60;42.30;;;;;;5091022;28;20027;-68
2022/06/22 13:35:45;;;;;;;1.50;1.05;;;27.60;42.40;;;;;;5091508;28;20036;-68
2022/06/22 13:38:14;;;;;;;2.67;1.08;;;27.60;42.70;;;;;;5091707;28;20070;-67
2022/06/22 13:41:25;;;;;;;0.90;0.90;;;27.60;42.80;;;;;;5073594;28;20410;-68
2022/06/22 13:44:16;;;;;;;0.95;0.85;;;27.50;42.70;;;;;;5066500;28;20110;-68
2022/06/22 13:47:01;;;;;;;1.42;1.05;;;27.50;43.00;;;;;;5091577;28;20047;-68
2022/06/22 13:49:41;;;;;;;1.17;1.08;;;27.50;43.00;;;;;;5091497;28;20144;-68
2022/06/22 13:52:28;;;;;;;1.23;0.90;;;27.40;43.10;;;;;;5091487;28;20028;-68
2022/06/22 13:55:08;;;;;;;1.02;0.85;;;27.40;43.20;;;;;;5090618;28;20028;-67
2022/06/22 13:58:00;;;;;;;1.83;0.85;;;27.40;43.10;;;;;;5090657;28;20051;-68
2022/06/22 14:01:00;;;;;;;1.08;0.90;;;27.40;43.10;;;;;;5086335;28;20294;-69
2022/06/22 14:03:26;;;;;;;1.05;0.95;;;27.40;43.20;;;;;;5091756;28;20407;-68
2022/06/22 14:06:00;;;;;;;1.55;0.88;;;27.40;43.70;;;;;;5092008;28;20102;-68
2022/06/22 14:08:42;;;;;;;1.05;0.95;;;27.30;43.70;;;;;;5091471;28;20036;-68
2022/06/22 14:11:17;;;;;;;2.10;0.95;;;27.20;43.70;;;;;;5091307;28;20020;-68